createdAt,value
2022-10-03T00:00:09.247Z,99.90
2022-10-03T00:03:24.320Z,99.90
2022-10-03T00:06:28.013Z,99.90
2022-10-03T00:08:59.289Z,99.90
2022-10-03T00:12:13.722Z,99.90
2022-10-03T00:15:13.520Z,99.90
2022-10-03T00:17:55.123Z,99.90
2022-10-03T00:20:45.348Z,99.90
2022-10-03T00:23:28.694Z,99.90
2022-10-03T00:26:28.573Z,99.90
2022-10-03T00:29:31.125Z,99.90
2022-10-03T00:32:38.212Z,99.90
2022-10-03T00:35:35.593Z,99.90
2022-10-03T00:38:27.098Z,99.90
2022-10-03T00:41:15.482Z,99.90
2022-10-03T00:44:04.246Z,99.90
2022-10-03T00:47:05.821Z,99.90
2022-10-03T00:49:54.300Z,99.90
2022-10-03T00:52:33.276Z,99.90
2022-10-03T00:55:18.531Z,99.90
2022-10-03T00:58:10.678Z,99.90
2022-10-03T01:00:41.433Z,99.90
2022-10-03T01:03:34.661Z,99.90
2022-10-03T01:06:18.084Z,99.90
2022-10-03T01:09:33.859Z,99.90
2022-10-03T01:12:37.613Z,99.90
2022-10-03T01:15:25.803Z,99.90
2022-10-03T01:18:20.838Z,99.90
2022-10-03T01:21:12.256Z,99.90
2022-10-03T01:24:26.511Z,99.90
2022-10-03T01:27:07.998Z,99.90
2022-10-03T01:30:21.295Z,99.90
2022-10-03T01:33:00.026Z,99.90
2022-10-03T01:35:56.578Z,99.90
2022-10-03T01:38:29.473Z,99.90
2022-10-03T01:41:45.862Z,99.90
2022-10-03T01:44:25.311Z,99.90
2022-10-03T01:47:01.890Z,99.90
2022-10-03T01:49:44.699Z,99.90
2022-10-03T01:52:51.701Z,99.90
2022-10-03T01:55:41.449Z,99.90
2022-10-03T01:58:33.498Z,99.90
2022-10-03T02:01:14.524Z,99.90
2022-10-03T02:04:08.616Z,99.90
2022-10-03T02:07:01.170Z,99.90
2022-10-03T02:09:41.534Z,99.90
2022-10-03T02:12:23.150Z,99.90
2022-10-03T02:15:00.928Z,99.90
2022-10-03T02:18:06.564Z,99.90
2022-10-03T02:20:51.956Z,99.90
2022-10-03T02:23:54.662Z,99.90
2022-10-03T02:26:43.214Z,99.90
2022-10-03T02:29:38.934Z,99.90
2022-10-03T02:32:27.486Z,99.90
2022-10-03T02:35:43.088Z,99.90
2022-10-03T02:38:41.273Z,99.90
2022-10-03T02:41:32.885Z,99.90
2022-10-03T02:44:07.338Z,99.90
2022-10-03T02:46:55.637Z,99.90
2022-10-03T02:50:03.182Z,99.90
2022-10-03T02:52:44.350Z,99.90
2022-10-03T02:55:44.728Z,99.90
2022-10-03T02:58:59.205Z,99.90
2022-10-03T03:01:56.824Z,99.90
2022-10-03T03:05:09.778Z,99.90
2022-10-03T03:07:52.161Z,99.90
2022-10-03T03:10:40.326Z,99.90
2022-10-03T03:13:46.718Z,99.90
2022-10-03T03:16:42.534Z,99.90
2022-10-03T03:19:47.634Z,99.90
2022-10-03T03:22:58.718Z,99.90
2022-10-03T03:25:42.173Z,99.90
2022-10-03T03:28:31.815Z,99.90
2022-10-03T03:31:23.821Z,99.90
2022-10-03T03:34:07.689Z,99.90
2022-10-03T03:36:45.729Z,99.90
2022-10-03T03:39:30.477Z,99.90
2022-10-03T03:42:15.082Z,99.90
2022-10-03T03:45:25.261Z,99.90
2022-10-03T03:48:13.040Z,99.90
2022-10-03T03:50:55.354Z,99.90
2022-10-03T03:53:54.865Z,99.90
2022-10-03T03:57:00.213Z,99.90
2022-10-03T03:59:50.399Z,99.90
2022-10-03T04:02:30.787Z,99.90
2022-10-03T04:05:04.096Z,99.90
2022-10-03T04:07:54.080Z,99.90
2022-10-03T04:10:41.669Z,99.90
2022-10-03T04:13:44.796Z,99.90
2022-10-03T04:17:02.189Z,99.90
2022-10-03T04:19:43.356Z,99.90
2022-10-03T04:22:29.386Z,99.90
2022-10-03T04:25:29.817Z,99.90
2022-10-03T04:28:32.099Z,99.90
2022-10-03T04:31:32.516Z,99.90
2022-10-03T04:34:05.786Z,99.90
2022-10-03T04:36:44.501Z,99.90
2022-10-03T04:39:32.942Z,99.90
2022-10-03T04:42:41.823Z,99.90
2022-10-03T04:45:39.456Z,99.90
2022-10-03T04:48:39.669Z,99.90
2022-10-03T04:51:42.185Z,99.90
2022-10-03T04:54:28.946Z,99.90
2022-10-03T04:57:25.462Z,99.90
2022-10-03T05:00:28.891Z,99.90
2022-10-03T05:03:04.857Z,99.90
2022-10-03T05:05:59.142Z,99.90
2022-10-03T05:08:47.948Z,99.90
2022-10-03T05:11:44.857Z,99.90
2022-10-03T05:14:45.809Z,99.90
2022-10-03T05:17:48.542Z,99.90
2022-10-03T05:23:47.293Z,99.90
2022-10-03T05:26:44.546Z,99.90
2022-10-03T05:29:29.847Z,99.90
2022-10-03T05:32:06.293Z,99.90
2022-10-03T05:38:10.059Z,99.90
2022-10-03T05:40:45.966Z,99.90
2022-10-03T05:43:44.244Z,99.90
2022-10-03T05:46:37.819Z,99.90
2022-10-03T05:49:50.327Z,99.90
2022-10-03T05:52:29.953Z,99.90
2022-10-03T05:55:10.210Z,99.90
2022-10-03T05:58:17.656Z,99.90
2022-10-03T06:01:23.922Z,99.90
2022-10-03T06:04:35.886Z,99.90
2022-10-03T06:07:25.976Z,99.90
2022-10-03T06:10:25.930Z,99.90
2022-10-03T06:13:36.129Z,99.90
2022-10-03T06:16:26.009Z,99.90
2022-10-03T06:19:17.309Z,99.90
2022-10-03T06:22:13.891Z,99.90
2022-10-03T06:24:57.940Z,99.90
2022-10-03T06:27:45.832Z,99.90
2022-10-03T06:30:26.795Z,99.90
2022-10-03T06:33:21.620Z,99.90
2022-10-03T06:36:03.916Z,99.90
2022-10-03T06:38:51.236Z,99.90
2022-10-03T06:41:35.300Z,99.90
2022-10-03T06:44:13.717Z,99.90
2022-10-03T06:46:49.486Z,99.90
2022-10-03T06:49:31.995Z,99.90
2022-10-03T06:52:26.603Z,99.90
2022-10-03T06:55:13.909Z,99.90
2022-10-03T06:58:07.984Z,99.90
2022-10-03T07:00:53.742Z,99.90
2022-10-03T07:03:52.968Z,99.90
2022-10-03T07:07:09.046Z,99.90
2022-10-03T07:09:45.239Z,99.90
2022-10-03T07:12:37.170Z,99.90
2022-10-03T07:15:57.822Z,99.90
2022-10-03T07:18:41.817Z,99.90
2022-10-03T07:21:32.562Z,99.90
2022-10-03T07:24:13.287Z,99.90
2022-10-03T07:27:20.825Z,99.90
2022-10-03T07:33:10.989Z,99.90
2022-10-03T07:36:07.124Z,99.90
2022-10-03T07:39:07.248Z,99.90
2022-10-03T07:42:20.540Z,99.90
2022-10-03T07:45:25.005Z,99.90
2022-10-03T07:48:06.924Z,99.90
2022-10-03T07:50:59.370Z,99.90
2022-10-03T07:53:53.523Z,99.90
2022-10-03T07:56:48.252Z,99.90
2022-10-03T07:59:41.890Z,99.90
2022-10-03T08:02:50.916Z,99.90
2022-10-03T08:05:56.555Z,99.90
2022-10-03T08:08:44.800Z,99.90
2022-10-03T08:11:29.973Z,99.90
2022-10-03T08:14:07.891Z,97.70
2022-10-03T08:17:12.315Z,94.90
2022-10-03T08:19:48.580Z,90.70
2022-10-03T08:22:51.250Z,90.90
2022-10-03T08:26:02.921Z,83.20
2022-10-03T08:28:48.611Z,82.80
2022-10-03T08:31:18.819Z,75.50
2022-10-03T08:34:14.893Z,71.50
2022-10-03T08:36:56.478Z,70.00
2022-10-03T08:39:38.577Z,62.90
2022-10-03T08:42:45.045Z,62.10
2022-10-03T08:45:57.808Z,56.50
2022-10-03T08:48:59.593Z,56.80
2022-10-03T08:51:59.059Z,56.90
2022-10-03T08:54:54.700Z,54.30
2022-10-03T08:57:42.527Z,59.60
2022-10-03T09:00:25.203Z,56.90
2022-10-03T09:03:36.877Z,60.10
2022-10-03T09:06:58.571Z,67.40
2022-10-03T09:09:53.506Z,70.30
2022-10-03T09:12:29.110Z,64.10
2022-10-03T09:15:17.902Z,57.60
2022-10-03T09:18:29.184Z,58.20
2022-10-03T09:21:10.504Z,50.70
2022-10-03T09:23:39.997Z,52.10
2022-10-03T09:26:29.370Z,47.60
2022-10-03T09:29:09.012Z,46.90
2022-10-03T09:32:05.115Z,49.70
2022-10-03T09:34:48.926Z,48.80
2022-10-03T09:37:39.065Z,51.60
2022-10-03T09:40:31.300Z,53.80
2022-10-03T09:43:31.502Z,55.40
2022-10-03T09:46:21.571Z,58.00
2022-10-03T09:49:13.765Z,59.70
2022-10-03T09:52:12.852Z,58.00
2022-10-03T09:55:02.153Z,57.70
2022-10-03T09:58:00.348Z,60.30
2022-10-03T10:03:59.262Z,61.80
2022-10-03T10:06:47.568Z,62.10
2022-10-03T10:09:59.220Z,61.40
2022-10-03T10:13:05.834Z,63.60
2022-10-03T10:16:23.287Z,63.00
2022-10-03T10:19:12.684Z,66.60
2022-10-03T10:22:08.865Z,63.30
2022-10-03T10:24:52.913Z,60.10
2022-10-03T10:27:49.515Z,63.50
2022-10-03T10:30:25.056Z,63.40
2022-10-03T10:33:12.529Z,60.80
2022-10-03T10:36:34.866Z,62.40
2022-10-03T10:39:44.925Z,62.30
2022-10-03T10:42:49.450Z,60.30
2022-10-03T10:45:39.540Z,64.80
2022-10-03T10:48:36.897Z,59.40
2022-10-03T10:51:47.639Z,61.50
2022-10-03T10:54:32.412Z,61.30
2022-10-03T10:57:15.756Z,61.60
2022-10-03T11:00:20.245Z,61.10
2022-10-03T11:03:35.061Z,61.90
2022-10-03T11:06:43.331Z,61.20
2022-10-03T11:09:55.220Z,61.50
2022-10-03T11:12:42.342Z,64.60
2022-10-03T11:15:31.404Z,65.00
2022-10-03T11:18:28.553Z,62.40
2022-10-03T11:21:24.627Z,62.80
2022-10-03T11:24:32.132Z,63.70
2022-10-03T11:27:46.381Z,62.70
2022-10-03T11:30:32.254Z,62.10
2022-10-03T11:33:46.718Z,63.50
2022-10-03T11:36:45.415Z,63.10
2022-10-03T11:39:44.003Z,61.90
2022-10-03T11:42:46.102Z,63.30
2022-10-03T11:45:21.820Z,61.90
2022-10-03T11:48:23.688Z,63.20
2022-10-03T11:51:01.171Z,63.20
2022-10-03T11:54:29.459Z,63.20
2022-10-03T11:57:07.003Z,64.20
2022-10-03T11:59:53.252Z,64.80
2022-10-03T12:02:45.901Z,66.00
2022-10-03T12:05:42.642Z,64.10
2022-10-03T12:08:54.185Z,63.70
2022-10-03T12:11:29.713Z,64.80
2022-10-03T12:14:23.144Z,64.70
2022-10-03T12:17:12.724Z,66.10
2022-10-03T12:20:18.658Z,65.90
2022-10-03T12:22:59.754Z,65.00
2022-10-03T12:25:42.213Z,65.30
2022-10-03T12:28:30.558Z,65.40
2022-10-03T12:31:28.746Z,65.20
2022-10-03T12:34:08.826Z,64.20
2022-10-03T12:37:12.019Z,66.20
2022-10-03T12:39:46.989Z,65.50
2022-10-03T12:42:37.713Z,66.70
2022-10-03T12:45:42.102Z,67.60
2022-10-03T12:48:34.971Z,67.50
2022-10-03T12:51:06.500Z,67.70
2022-10-03T12:54:02.759Z,68.10
2022-10-03T12:57:16.950Z,68.50
2022-10-03T13:00:25.920Z,67.70
2022-10-03T13:03:12.391Z,68.00
2022-10-03T13:06:17.138Z,68.10
2022-10-03T13:09:13.483Z,67.60
2022-10-03T13:12:10.434Z,68.00
2022-10-03T13:15:27.019Z,67.40
2022-10-03T13:18:26.348Z,67.00
2022-10-03T13:21:13.115Z,66.40
2022-10-03T13:24:11.631Z,66.60
2022-10-03T13:26:52.339Z,66.10
2022-10-03T13:29:54.362Z,68.10
2022-10-03T13:32:39.651Z,69.20
2022-10-03T13:35:50.631Z,68.90
2022-10-03T13:38:32.115Z,68.50
2022-10-03T13:41:26.396Z,67.70
2022-10-03T13:44:12.819Z,68.70
2022-10-03T13:47:04.881Z,67.70
2022-10-03T13:49:52.238Z,67.50
2022-10-03T13:52:37.893Z,67.20
2022-10-03T13:55:21.792Z,67.60
2022-10-03T13:58:25.184Z,68.10
2022-10-03T14:01:04.273Z,68.00
2022-10-03T14:03:46.517Z,69.40
2022-10-03T14:06:43.975Z,69.20
2022-10-03T14:09:30.702Z,67.90
2022-10-03T14:12:33.175Z,67.60
2022-10-03T14:15:21.041Z,68.90
2022-10-03T14:18:07.812Z,68.90
2022-10-03T14:20:53.532Z,69.80
2022-10-03T14:23:33.998Z,69.70
2022-10-03T14:26:30.148Z,68.80
2022-10-03T14:29:28.931Z,70.00
2022-10-03T14:32:22.583Z,69.70
2022-10-03T14:35:26.428Z,70.00
2022-10-03T14:38:16.182Z,68.80
2022-10-03T14:41:02.831Z,69.10
2022-10-03T14:43:45.984Z,69.70
2022-10-03T14:46:15.946Z,70.30
2022-10-03T14:48:51.594Z,68.70
2022-10-03T14:51:43.073Z,68.80
2022-10-03T14:54:21.431Z,66.90
2022-10-03T14:56:51.588Z,68.00
2022-10-03T14:59:23.863Z,69.50
2022-10-03T15:01:54.133Z,69.60
2022-10-03T15:04:29.156Z,69.00
2022-10-03T15:07:00.297Z,68.60
2022-10-03T15:09:33.711Z,68.50
2022-10-03T15:12:24.637Z,69.20
2022-10-03T15:15:01.216Z,67.70
2022-10-03T15:17:32.052Z,69.50
2022-10-03T15:20:01.370Z,68.20
2022-10-03T15:22:41.389Z,68.30
2022-10-03T15:25:14.291Z,69.20
2022-10-03T15:27:43.520Z,69.90
2022-10-03T15:30:22.179Z,69.20
2022-10-03T15:32:50.698Z,68.60
2022-10-03T15:35:22.567Z,70.20
2022-10-03T15:37:49.956Z,69.80
2022-10-03T15:40:25.430Z,70.90
2022-10-03T15:43:03.622Z,71.10
2022-10-03T15:45:33.558Z,71.10
2022-10-03T15:48:05.271Z,71.10
2022-10-03T15:50:39.108Z,72.70
2022-10-03T15:53:36.552Z,73.70
2022-10-03T15:56:24.088Z,75.30
2022-10-03T15:58:57.175Z,76.90
2022-10-03T16:01:41.097Z,76.20
2022-10-03T16:04:21.991Z,77.90
2022-10-03T16:07:11.816Z,79.20
2022-10-03T16:09:53.135Z,77.00
2022-10-03T16:12:20.013Z,77.10
2022-10-03T16:15:16.976Z,79.90
2022-10-03T16:17:51.827Z,78.50
2022-10-03T16:20:37.273Z,81.30
2022-10-03T16:23:26.897Z,84.70
2022-10-03T16:26:04.966Z,86.00
2022-10-03T16:28:39.537Z,86.40
2022-10-03T16:31:29.993Z,88.70
2022-10-03T16:34:04.439Z,88.10
2022-10-03T16:36:41.068Z,88.50
2022-10-03T16:39:26.803Z,89.30
2022-10-03T16:41:55.489Z,88.60
2022-10-03T16:44:34.060Z,87.80
2022-10-03T16:47:03.600Z,88.00
2022-10-03T16:50:08.347Z,89.60
2022-10-03T16:52:40.503Z,90.70
2022-10-03T16:55:13.265Z,91.40
2022-10-03T16:57:51.949Z,91.30
2022-10-03T17:00:26.645Z,91.40
2022-10-03T17:02:55.548Z,91.60
2022-10-03T17:05:23.178Z,92.10
2022-10-03T17:08:06.625Z,91.70
2022-10-03T17:10:41.250Z,91.60
2022-10-03T17:13:16.405Z,93.20
2022-10-03T17:16:14.028Z,93.10
2022-10-03T17:18:44.680Z,93.60
2022-10-03T17:21:22.521Z,94.20
2022-10-03T17:24:09.673Z,94.50
2022-10-03T17:26:45.550Z,95.00
2022-10-03T17:29:37.825Z,95.10
2022-10-03T17:32:44.978Z,94.80
2022-10-03T17:35:41.190Z,96.10
2022-10-03T17:38:48.881Z,95.90
2022-10-03T17:41:18.719Z,95.90
2022-10-03T17:43:50.067Z,96.30
2022-10-03T17:46:26.203Z,96.40
2022-10-03T17:49:17.856Z,97.40
2022-10-03T17:51:48.220Z,98.30
2022-10-03T17:54:20.170Z,98.00
2022-10-03T17:57:07.326Z,97.90
2022-10-03T17:59:46.839Z,97.90
2022-10-03T18:02:24.279Z,98.10
2022-10-03T18:05:01.684Z,98.50
2022-10-03T18:07:30.654Z,99.60
2022-10-03T18:09:58.219Z,99.90
2022-10-03T18:12:40.468Z,99.90
2022-10-03T18:15:22.811Z,99.90
2022-10-03T18:17:49.847Z,99.90
2022-10-03T18:20:34.895Z,99.90
2022-10-03T18:23:08.537Z,99.90
2022-10-03T18:26:19.632Z,99.90
2022-10-03T18:29:22.552Z,99.90
2022-10-03T18:31:59.129Z,99.90
2022-10-03T18:34:48.203Z,99.90
2022-10-03T18:37:29.140Z,99.90
2022-10-03T18:39:59.185Z,99.90
2022-10-03T18:42:29.978Z,99.90
2022-10-03T18:44:59.726Z,99.90
2022-10-03T18:47:31.127Z,99.90
2022-10-03T18:50:21.767Z,99.90
2022-10-03T18:52:54.061Z,99.90
2022-10-03T18:55:29.397Z,99.90
2022-10-03T18:58:18.992Z,99.90
2022-10-03T19:01:02.085Z,99.90
2022-10-03T19:03:44.336Z,99.90
2022-10-03T19:06:25.447Z,99.90
2022-10-03T19:09:00.362Z,99.90
2022-10-03T19:11:58.499Z,99.90
2022-10-03T19:14:58.292Z,99.90
2022-10-03T19:17:50.279Z,99.90
2022-10-03T19:20:33.633Z,99.90
2022-10-03T19:23:27.312Z,99.90
2022-10-03T19:25:59.383Z,99.90
2022-10-03T19:28:35.557Z,99.90
2022-10-03T19:31:12.055Z,99.90
2022-10-03T19:33:45.384Z,99.90
2022-10-03T19:36:21.918Z,99.90
2022-10-03T19:38:50.135Z,99.90
2022-10-03T19:41:27.653Z,99.90
2022-10-03T19:43:55.595Z,99.90
2022-10-03T19:46:34.585Z,99.90
2022-10-03T19:49:19.848Z,99.90
2022-10-03T19:51:49.050Z,99.90
2022-10-03T19:54:43.079Z,99.90
2022-10-03T19:57:19.764Z,99.90
2022-10-03T19:59:54.994Z,99.90
2022-10-03T20:02:27.268Z,99.90
2022-10-03T20:04:57.325Z,99.90
2022-10-03T20:07:46.865Z,99.90
2022-10-03T20:10:36.375Z,99.90
2022-10-03T20:13:04.263Z,99.90
2022-10-03T20:15:50.464Z,99.90
2022-10-03T20:18:25.043Z,99.90
2022-10-03T20:20:55.037Z,99.90
2022-10-03T20:23:25.764Z,99.90
2022-10-03T20:26:01.584Z,99.90
2022-10-03T20:28:39.383Z,99.90
2022-10-03T20:31:06.977Z,99.90
2022-10-03T20:33:37.311Z,99.90
2022-10-03T20:36:25.560Z,99.90
2022-10-03T20:39:01.316Z,99.90
2022-10-03T20:41:42.305Z,99.90
2022-10-03T20:44:35.543Z,99.90
2022-10-03T20:47:07.029Z,99.90
2022-10-03T20:49:40.260Z,99.90
2022-10-03T20:52:08.802Z,99.90
2022-10-03T20:54:46.769Z,99.90
2022-10-03T20:57:20.020Z,99.90
2022-10-03T20:59:55.912Z,99.90
2022-10-03T21:02:52.321Z,99.90
2022-10-03T21:05:39.050Z,99.90
2022-10-03T21:08:17.538Z,99.90
2022-10-03T21:10:54.860Z,99.90
2022-10-03T21:13:40.824Z,99.90
2022-10-03T21:16:21.444Z,99.90
2022-10-03T21:18:51.249Z,99.90
2022-10-03T21:21:31.333Z,99.90
2022-10-03T21:24:21.225Z,99.90
2022-10-03T21:26:56.865Z,99.90
2022-10-03T21:29:23.789Z,99.90
2022-10-03T21:31:50.799Z,99.90
2022-10-03T21:34:43.895Z,99.90
2022-10-03T21:37:26.065Z,99.90
2022-10-03T21:40:40.843Z,99.90
2022-10-03T21:43:45.413Z,99.90
2022-10-03T21:46:38.327Z,99.90
2022-10-03T21:49:22.702Z,99.90
2022-10-03T21:51:49.576Z,99.90
2022-10-03T21:54:27.171Z,99.90
2022-10-03T21:56:56.979Z,99.90
2022-10-03T21:59:56.318Z,99.90
2022-10-03T22:02:32.166Z,99.90
2022-10-03T22:05:06.010Z,99.90
2022-10-03T22:07:42.049Z,99.90
2022-10-03T22:10:21.511Z,99.90
2022-10-03T22:12:55.801Z,99.90
2022-10-03T22:15:22.802Z,99.90
2022-10-03T22:18:11.481Z,99.90
2022-10-03T22:21:02.500Z,99.90
2022-10-03T22:23:38.602Z,99.90
2022-10-03T22:26:37.203Z,99.90
2022-10-03T22:29:13.008Z,99.90
2022-10-03T22:31:51.235Z,99.90
2022-10-03T22:34:20.915Z,99.90
2022-10-03T22:36:48.814Z,99.90
2022-10-03T22:39:18.441Z,99.90
2022-10-03T22:41:50.581Z,99.90
2022-10-03T22:44:22.925Z,99.90
2022-10-03T22:46:53.134Z,99.90
2022-10-03T22:49:48.119Z,99.90
2022-10-03T22:52:24.345Z,99.90
2022-10-03T22:54:52.498Z,99.90
2022-10-03T22:57:19.886Z,99.90
2022-10-03T23:00:00.935Z,99.90
2022-10-03T23:02:33.538Z,99.90
2022-10-03T23:05:07.102Z,99.90
2022-10-03T23:07:46.175Z,99.90
2022-10-03T23:10:24.323Z,99.90
2022-10-03T23:13:35.955Z,99.90
2022-10-03T23:16:40.553Z,99.90
2022-10-03T23:19:19.299Z,99.90
2022-10-03T23:21:48.284Z,99.90
2022-10-03T23:24:44.184Z,99.90
2022-10-03T23:27:49.048Z,99.90
2022-10-03T23:30:15.893Z,99.90
2022-10-03T23:32:49.099Z,99.90
2022-10-03T23:35:20.223Z,99.90
2022-10-03T23:37:49.243Z,99.90
2022-10-03T23:40:50.635Z,99.90
2022-10-03T23:43:23.696Z,99.90
2022-10-03T23:45:53.405Z,99.90
2022-10-03T23:48:23.838Z,99.90
2022-10-03T23:50:57.668Z,99.90
2022-10-03T23:53:31.575Z,99.90
2022-10-03T23:56:03.992Z,99.90
2022-10-03T23:58:34.171Z,99.90
